createdAt,value
2022-08-29T00:00:18.179Z,21.40
2022-08-29T00:02:50.949Z,21.40
2022-08-29T00:05:20.395Z,21.40
2022-08-29T00:07:52.218Z,21.30
2022-08-29T00:10:19.606Z,21.20
2022-08-29T00:12:46.371Z,21.00
2022-08-29T00:15:14.318Z,20.90
2022-08-29T00:17:41.571Z,20.80
2022-08-29T00:20:13.131Z,20.70
2022-08-29T00:22:40.405Z,20.50
2022-08-29T00:25:08.780Z,20.50
2022-08-29T00:27:35.579Z,20.50
2022-08-29T00:30:02.746Z,20.50
2022-08-29T00:32:35.108Z,20.50
2022-08-29T00:35:04.609Z,20.50
2022-08-29T00:37:31.619Z,20.60
2022-08-29T00:39:59.342Z,20.60
2022-08-29T00:42:27.090Z,20.70
2022-08-29T00:44:53.974Z,20.70
2022-08-29T00:47:26.045Z,20.70
2022-08-29T00:49:57.294Z,20.70
2022-08-29T00:52:40.831Z,20.80
2022-08-29T00:55:14.449Z,20.70
2022-08-29T00:57:44.953Z,20.80
2022-08-29T01:00:13.636Z,20.90
2022-08-29T01:02:41.614Z,20.80
2022-08-29T01:05:11.779Z,20.80
2022-08-29T01:07:40.688Z,20.80
2022-08-29T01:10:13.426Z,20.90
2022-08-29T01:12:41.263Z,20.80
2022-08-29T01:15:10.524Z,20.90
2022-08-29T01:17:44.203Z,20.90
2022-08-29T01:20:19.890Z,20.90
2022-08-29T01:22:50.909Z,20.80
2022-08-29T01:25:24.406Z,20.80
2022-08-29T01:27:57.304Z,20.70
2022-08-29T01:30:24.209Z,20.60
2022-08-29T01:32:51.187Z,20.60
2022-08-29T01:35:17.961Z,20.60
2022-08-29T01:37:47.057Z,20.50
2022-08-29T01:40:14.412Z,20.50
2022-08-29T01:42:41.402Z,20.50
2022-08-29T01:45:09.812Z,20.50
2022-08-29T01:47:40.467Z,20.50
2022-08-29T01:50:11.979Z,20.50
2022-08-29T01:52:39.269Z,20.50
2022-08-29T01:55:06.779Z,20.40
2022-08-29T01:57:33.551Z,20.30
2022-08-29T02:00:02.173Z,20.30
2022-08-29T02:02:29.802Z,20.30
2022-08-29T02:04:58.609Z,20.30
2022-08-29T02:07:26.280Z,20.30
2022-08-29T02:09:54.148Z,20.30
2022-08-29T02:12:21.441Z,20.20
2022-08-29T02:14:50.685Z,20.30
2022-08-29T02:17:18.327Z,20.20
2022-08-29T02:19:45.994Z,20.10
2022-08-29T02:22:13.544Z,20.10
2022-08-29T02:24:41.369Z,20.10
2022-08-29T02:27:10.389Z,20.10
2022-08-29T02:29:38.398Z,20.10
2022-08-29T02:32:08.402Z,20.10
2022-08-29T02:34:36.446Z,20.10
2022-08-29T02:37:04.945Z,20.00
2022-08-29T02:39:33.252Z,20.00
2022-08-29T02:42:00.019Z,20.00
2022-08-29T02:44:26.807Z,19.90
2022-08-29T02:46:53.670Z,19.80
2022-08-29T02:49:20.664Z,19.60
2022-08-29T02:51:48.509Z,19.50
2022-08-29T02:54:15.488Z,19.50
2022-08-29T02:56:42.256Z,19.50
2022-08-29T02:59:09.050Z,19.40
2022-08-29T03:01:38.705Z,19.60
2022-08-29T03:04:06.434Z,19.70
2022-08-29T03:06:33.980Z,19.60
2022-08-29T03:09:01.442Z,19.60
2022-08-29T03:11:29.530Z,20.50
2022-08-29T03:13:57.654Z,19.60
2022-08-29T03:16:25.764Z,19.70
2022-08-29T03:18:52.612Z,19.60
2022-08-29T03:21:23.542Z,19.80
2022-08-29T03:23:50.932Z,20.00
2022-08-29T03:26:19.215Z,20.00
2022-08-29T03:28:46.785Z,20.00
2022-08-29T03:31:14.448Z,19.90
2022-08-29T03:33:41.913Z,19.80
2022-08-29T03:36:13.958Z,19.70
2022-08-29T03:38:43.884Z,19.70
2022-08-29T03:41:11.435Z,19.70
2022-08-29T03:43:38.433Z,19.60
2022-08-29T03:46:05.808Z,19.50
2022-08-29T03:48:33.770Z,19.50
2022-08-29T03:51:01.272Z,19.50
2022-08-29T03:53:28.118Z,19.50
2022-08-29T03:55:56.804Z,19.60
2022-08-29T03:58:23.631Z,19.60
2022-08-29T04:00:50.392Z,19.60
2022-08-29T04:03:17.527Z,19.50
2022-08-29T04:05:44.707Z,19.40
2022-08-29T04:08:11.786Z,19.30
2022-08-29T04:10:39.242Z,19.40
2022-08-29T04:13:07.634Z,19.50
2022-08-29T04:15:35.737Z,19.40
2022-08-29T04:18:07.046Z,19.30
2022-08-29T04:20:38.025Z,19.40
2022-08-29T04:23:06.143Z,19.50
2022-08-29T04:25:37.338Z,19.40
2022-08-29T04:28:11.669Z,19.40
2022-08-29T04:30:39.721Z,19.40
2022-08-29T04:33:07.254Z,19.50
2022-08-29T04:35:37.228Z,19.50
2022-08-29T04:38:04.445Z,19.50
2022-08-29T04:40:31.422Z,19.90
2022-08-29T04:42:59.542Z,19.90
2022-08-29T04:45:27.028Z,20.10
2022-08-29T04:47:54.372Z,20.30
2022-08-29T04:50:23.482Z,20.50
2022-08-29T04:52:52.368Z,20.90
2022-08-29T04:55:22.710Z,21.00
2022-08-29T04:57:53.505Z,21.20
2022-08-29T05:00:26.571Z,21.20
2022-08-29T05:02:53.415Z,21.50
2022-08-29T05:05:20.371Z,21.20
2022-08-29T05:07:47.486Z,20.90
2022-08-29T05:12:49.917Z,20.10
2022-08-29T05:15:17.206Z,19.10
2022-08-29T05:17:44.843Z,20.20
2022-08-29T05:20:12.939Z,20.10
2022-08-29T05:22:40.626Z,20.00
2022-08-29T05:25:07.852Z,19.90
2022-08-29T05:30:34.172Z,19.60
2022-08-29T05:41:19.135Z,20.10
2022-08-29T05:49:54.786Z,20.50
2022-08-29T05:52:21.717Z,20.60
2022-08-29T06:01:04.659Z,20.80
2022-08-29T06:06:24.752Z,21.00
2022-08-29T06:08:52.483Z,21.20
2022-08-29T06:11:22.286Z,21.20
2022-08-29T06:22:26.831Z,21.70
2022-08-29T06:24:56.804Z,21.70
2022-08-29T06:30:06.991Z,21.80
2022-08-29T06:32:34.347Z,22.10
2022-08-29T06:40:18.051Z,22.30
2022-08-29T06:45:33.462Z,22.70
2022-08-29T06:48:03.907Z,21.50
2022-08-29T06:53:31.630Z,22.90
2022-08-29T06:56:11.108Z,22.90
2022-08-29T07:05:06.722Z,23.00
2022-08-29T07:10:35.355Z,23.40
2022-08-29T07:30:39.450Z,24.70
2022-08-29T07:35:41.614Z,24.60
2022-08-29T07:38:11.670Z,24.60
2022-08-29T07:40:38.984Z,24.40
2022-08-29T07:43:05.958Z,23.90
2022-08-29T08:05:08.252Z,24.60
2022-08-29T08:16:29.321Z,24.80
2022-08-29T08:18:56.825Z,23.20
2022-08-29T08:21:25.133Z,24.10
2022-08-29T08:46:49.786Z,25.00
2022-08-29T08:49:38.769Z,25.00
2022-08-29T09:03:38.547Z,25.90
2022-08-29T09:19:43.519Z,27.30
2022-08-29T09:27:37.193Z,27.40
2022-08-29T09:30:04.422Z,27.00
2022-08-29T09:32:32.408Z,27.40
2022-08-29T09:35:15.181Z,27.40
2022-08-29T09:43:52.682Z,27.40
2022-08-29T09:46:26.897Z,28.00
2022-08-29T09:49:02.902Z,28.40
2022-08-29T09:51:38.417Z,28.80
2022-08-29T09:54:28.800Z,28.90
2022-08-29T09:57:10.710Z,28.80
2022-08-29T09:59:45.136Z,28.60
2022-08-29T10:04:50.810Z,28.60
2022-08-29T10:07:26.135Z,28.60
2022-08-29T10:18:48.926Z,28.90
2022-08-29T10:21:15.929Z,30.00
2022-08-29T10:23:58.481Z,30.10
2022-08-29T10:29:28.516Z,29.90
2022-08-29T10:32:26.509Z,29.50
2022-08-29T10:37:36.235Z,28.80
2022-08-29T10:46:09.409Z,29.40
2022-08-29T10:48:48.832Z,29.70
2022-08-29T10:51:52.410Z,29.70
2022-08-29T11:00:08.830Z,30.30
2022-08-29T11:02:43.342Z,30.30
2022-08-29T11:05:23.298Z,30.50
2022-08-29T11:16:43.425Z,31.10
2022-08-29T11:21:53.842Z,30.60
2022-08-29T11:27:37.902Z,30.30
2022-08-29T11:30:22.946Z,28.30
2022-08-29T11:32:56.860Z,28.20
2022-08-29T11:35:38.771Z,29.90
2022-08-29T11:38:42.717Z,30.90
2022-08-29T11:41:30.947Z,32.90
2022-08-29T11:44:23.131Z,35.00
2022-08-29T11:46:53.611Z,37.30
2022-08-29T11:49:26.621Z,37.20
2022-08-29T11:52:24.807Z,35.40
2022-08-29T11:55:26.346Z,33.90
2022-08-29T11:58:04.131Z,33.60
2022-08-29T12:00:50.392Z,33.70
2022-08-29T12:03:33.169Z,35.60
2022-08-29T12:06:20.061Z,38.60
2022-08-29T12:09:14.518Z,40.00
2022-08-29T12:12:02.619Z,39.90
2022-08-29T12:14:38.849Z,39.90
2022-08-29T12:17:09.872Z,38.60
2022-08-29T12:19:56.370Z,37.50
2022-08-29T12:22:46.052Z,36.10
2022-08-29T12:26:09.506Z,35.20
2022-08-29T12:28:58.118Z,34.20
2022-08-29T12:32:17.993Z,35.10
2022-08-29T12:34:47.403Z,36.10
2022-08-29T12:37:59.367Z,36.30
2022-08-29T12:40:41.016Z,37.80
2022-08-29T12:43:28.567Z,36.90
2022-08-29T12:45:56.840Z,36.30
2022-08-29T12:48:33.357Z,36.00
2022-08-29T12:51:00.833Z,35.20
2022-08-29T12:53:51.942Z,34.40
2022-08-29T12:56:22.372Z,33.50
2022-08-29T12:59:18.101Z,32.60
2022-08-29T13:01:49.118Z,32.00
2022-08-29T13:04:19.267Z,33.20
2022-08-29T13:06:51.956Z,35.60
2022-08-29T13:09:41.364Z,38.40
2022-08-29T13:12:21.524Z,40.50
2022-08-29T13:14:54.376Z,41.90
2022-08-29T13:17:28.836Z,42.80
2022-08-29T13:20:33.033Z,43.20
2022-08-29T13:23:12.326Z,43.90
2022-08-29T13:26:02.852Z,44.60
2022-08-29T13:28:48.880Z,45.10
2022-08-29T13:31:15.851Z,44.70
2022-08-29T13:33:45.696Z,44.80
2022-08-29T13:36:27.633Z,44.70
2022-08-29T13:39:21.408Z,45.30
2022-08-29T13:41:51.647Z,45.70
2022-08-29T13:44:20.986Z,46.60
2022-08-29T13:46:49.144Z,47.40
2022-08-29T13:49:24.653Z,47.10
2022-08-29T13:51:51.830Z,46.80
2022-08-29T13:54:19.533Z,46.60
2022-08-29T13:56:57.761Z,46.90
2022-08-29T13:59:28.227Z,46.90
2022-08-29T14:02:11.601Z,46.90
2022-08-29T14:04:40.616Z,46.70
2022-08-29T14:07:21.219Z,46.00
2022-08-29T14:09:49.336Z,45.80
2022-08-29T14:12:16.641Z,44.30
2022-08-29T14:14:44.815Z,43.00
2022-08-29T14:17:18.121Z,41.50
2022-08-29T14:19:46.685Z,41.20
2022-08-29T14:22:14.330Z,40.50
2022-08-29T14:24:42.039Z,39.80
2022-08-29T14:27:09.988Z,38.60
2022-08-29T14:29:37.281Z,37.20
2022-08-29T14:32:04.491Z,36.50
2022-08-29T14:34:33.016Z,35.60
2022-08-29T14:37:01.717Z,34.80
2022-08-29T14:39:29.038Z,34.40
2022-08-29T14:41:55.957Z,33.80
2022-08-29T14:44:23.698Z,33.40
2022-08-29T14:46:51.357Z,33.20
2022-08-29T14:49:19.149Z,33.30
2022-08-29T14:51:46.519Z,33.40
2022-08-29T14:54:13.349Z,33.30
2022-08-29T14:56:48.879Z,33.30
2022-08-29T14:59:17.030Z,34.40
2022-08-29T15:01:47.643Z,35.70
2022-08-29T15:04:18.048Z,35.60
2022-08-29T15:06:48.593Z,35.30
2022-08-29T15:09:16.893Z,34.80
2022-08-29T15:11:44.156Z,34.10
2022-08-29T15:22:17.786Z,31.90
2022-08-29T15:24:45.146Z,31.20
2022-08-29T15:27:12.486Z,30.80
2022-08-29T15:29:43.061Z,30.70
2022-08-29T15:32:12.215Z,30.50
2022-08-29T15:34:40.883Z,29.10
2022-08-29T15:37:10.532Z,29.80
2022-08-29T15:39:38.241Z,29.70
2022-08-29T15:42:17.432Z,29.60
2022-08-29T15:48:02.573Z,29.60
2022-08-29T15:50:30.857Z,28.40
2022-08-29T15:52:57.804Z,29.40
2022-08-29T15:55:25.094Z,29.30
2022-08-29T15:57:53.007Z,27.70
2022-08-29T16:00:29.840Z,29.20
2022-08-29T16:02:58.648Z,29.10
2022-08-29T16:08:01.826Z,29.00
2022-08-29T16:10:28.637Z,28.90
2022-08-29T16:12:55.537Z,28.90
2022-08-29T16:15:22.493Z,29.00
2022-08-29T16:17:49.339Z,29.20
2022-08-29T16:20:16.696Z,29.30
2022-08-29T16:22:43.519Z,29.50
2022-08-29T16:25:12.774Z,29.50
2022-08-29T16:27:39.922Z,29.50
2022-08-29T16:30:09.842Z,29.40
2022-08-29T16:32:37.443Z,29.40
2022-08-29T16:35:04.926Z,29.40
2022-08-29T16:37:33.494Z,29.30
2022-08-29T16:42:37.591Z,29.00
2022-08-29T16:45:06.266Z,28.90
2022-08-29T16:47:33.774Z,28.80
2022-08-29T16:50:01.475Z,28.60
2022-08-29T16:52:30.541Z,28.50
2022-08-29T16:54:58.116Z,28.40
2022-08-29T16:57:25.101Z,28.30
2022-08-29T16:59:51.911Z,28.20
2022-08-29T17:02:18.739Z,28.20
2022-08-29T17:04:46.952Z,28.10
2022-08-29T17:07:13.937Z,28.00
2022-08-29T17:09:40.760Z,27.90
2022-08-29T17:12:08.398Z,27.80
2022-08-29T17:14:36.996Z,27.70
2022-08-29T17:17:04.135Z,27.70
2022-08-29T17:19:33.549Z,27.70
2022-08-29T17:22:01.044Z,27.60
2022-08-29T17:24:27.979Z,27.60
2022-08-29T17:26:54.940Z,27.40
2022-08-29T17:29:22.492Z,27.30
2022-08-29T17:31:49.486Z,27.20
2022-08-29T17:34:16.303Z,27.10
2022-08-29T17:36:44.223Z,27.10
2022-08-29T17:39:11.939Z,27.00
2022-08-29T17:41:40.004Z,26.90
2022-08-29T17:44:10.050Z,26.70
2022-08-29T17:46:36.861Z,26.50
2022-08-29T17:49:07.862Z,26.40
2022-08-29T17:51:35.339Z,26.30
2022-08-29T17:54:04.219Z,26.10
2022-08-29T17:57:01.049Z,25.90
2022-08-29T17:59:31.578Z,25.60
2022-08-29T18:01:59.192Z,25.40
2022-08-29T18:04:26.957Z,25.40
2022-08-29T18:06:55.716Z,25.20
2022-08-29T18:09:24.015Z,25.20
2022-08-29T18:11:52.542Z,25.10
2022-08-29T18:14:22.630Z,25.00
2022-08-29T18:16:50.633Z,24.90
2022-08-29T18:19:18.194Z,24.90
2022-08-29T18:21:45.533Z,24.90
2022-08-29T18:24:14.832Z,25.00
2022-08-29T18:26:44.563Z,25.10
2022-08-29T18:29:11.989Z,25.10
2022-08-29T18:31:40.812Z,25.10
2022-08-29T18:34:08.896Z,25.00
2022-08-29T18:36:39.836Z,24.90
2022-08-29T18:39:07.634Z,24.70
2022-08-29T18:41:34.935Z,24.70
2022-08-29T18:44:01.806Z,24.60
2022-08-29T18:46:30.095Z,24.70
2022-08-29T18:48:57.265Z,24.70
2022-08-29T18:51:24.149Z,24.60
2022-08-29T18:53:50.906Z,24.70
2022-08-29T18:56:18.507Z,24.70
2022-08-29T18:58:45.817Z,24.80
2022-08-29T19:01:17.836Z,24.80
2022-08-29T19:03:56.590Z,24.60
2022-08-29T19:06:25.763Z,24.40
2022-08-29T19:08:54.805Z,24.40
2022-08-29T19:11:22.916Z,24.30
2022-08-29T19:13:52.329Z,24.20
2022-08-29T19:16:21.216Z,24.40
2022-08-29T19:18:48.560Z,24.40
2022-08-29T19:21:15.638Z,24.30
2022-08-29T19:23:52.696Z,24.20
2022-08-29T19:26:29.039Z,24.10
2022-08-29T19:28:59.212Z,24.10
2022-08-29T19:31:28.029Z,24.00
2022-08-29T19:33:54.947Z,23.90
2022-08-29T19:36:23.501Z,23.90
2022-08-29T19:38:50.948Z,23.90
2022-08-29T19:41:17.836Z,23.80
2022-08-29T19:43:45.511Z,23.70
2022-08-29T19:46:16.633Z,23.90
2022-08-29T19:48:44.936Z,24.10
2022-08-29T19:51:17.697Z,24.40
2022-08-29T19:53:44.930Z,24.30
2022-08-29T19:56:12.661Z,24.00
2022-08-29T19:58:39.808Z,23.80
2022-08-29T20:01:09.268Z,23.70
2022-08-29T20:03:41.644Z,23.50
2022-08-29T20:06:09.961Z,23.40
2022-08-29T20:08:41.380Z,23.30
2022-08-29T20:11:13.797Z,23.60
2022-08-29T20:13:47.541Z,23.40
2022-08-29T20:16:19.936Z,23.50
2022-08-29T20:18:50.203Z,23.80
2022-08-29T20:21:19.237Z,24.00
2022-08-29T20:23:49.099Z,23.90
2022-08-29T20:26:18.215Z,23.60
2022-08-29T20:28:45.071Z,23.40
2022-08-29T20:31:12.923Z,23.30
2022-08-29T20:33:41.472Z,23.20
2022-08-29T20:36:26.979Z,23.20
2022-08-29T20:38:54.348Z,23.10
2022-08-29T20:41:21.817Z,23.00
2022-08-29T20:43:48.794Z,23.00
2022-08-29T20:46:15.735Z,23.00
2022-08-29T20:48:42.706Z,23.00
2022-08-29T20:51:10.360Z,22.90
2022-08-29T20:53:38.512Z,22.80
2022-08-29T20:56:06.546Z,22.80
2022-08-29T20:58:34.580Z,22.80
2022-08-29T21:01:02.403Z,23.10
2022-08-29T21:03:47.748Z,23.00
2022-08-29T21:06:18.622Z,22.80
2022-08-29T21:08:45.602Z,22.70
2022-08-29T21:11:14.590Z,22.60
2022-08-29T21:13:43.276Z,22.50
2022-08-29T21:16:11.318Z,22.80
2022-08-29T21:18:39.033Z,23.10
2022-08-29T21:21:06.216Z,23.00
2022-08-29T21:23:34.302Z,22.80
2022-08-29T21:26:02.096Z,22.70
2022-08-29T21:28:32.835Z,22.50
2022-08-29T21:31:12.471Z,22.40
2022-08-29T21:33:42.506Z,22.30
2022-08-29T21:36:14.758Z,22.20
2022-08-29T21:38:41.953Z,22.00
2022-08-29T21:41:11.653Z,22.10
2022-08-29T21:43:39.481Z,22.50
2022-08-29T21:46:25.058Z,22.50
2022-08-29T21:48:56.589Z,22.80
2022-08-29T21:51:24.405Z,22.70
2022-08-29T21:53:52.950Z,22.60
2022-08-29T21:56:19.933Z,22.50
2022-08-29T21:58:49.801Z,22.40
2022-08-29T22:01:16.987Z,22.30
2022-08-29T22:03:45.375Z,22.20
2022-08-29T22:06:15.371Z,22.10
2022-08-29T22:08:46.009Z,21.90
2022-08-29T22:11:22.030Z,21.90
2022-08-29T22:13:51.100Z,22.00
2022-08-29T22:16:30.312Z,22.00
2022-08-29T22:19:13.151Z,22.00
2022-08-29T22:21:48.741Z,22.00
2022-08-29T22:24:16.953Z,22.00
2022-08-29T22:26:44.445Z,22.20
2022-08-29T22:29:14.031Z,22.20
2022-08-29T22:31:42.696Z,22.30
2022-08-29T22:34:12.026Z,22.30
2022-08-29T22:36:39.216Z,22.30
2022-08-29T22:39:06.473Z,22.20
2022-08-29T22:41:34.247Z,22.10
2022-08-29T22:44:52.604Z,22.00
2022-08-29T22:46:49.347Z,22.00
2022-08-29T22:49:16.205Z,22.10
2022-08-29T22:51:43.004Z,22.10
2022-08-29T22:54:30.129Z,22.60
2022-08-29T22:56:56.919Z,22.50
2022-08-29T22:59:23.854Z,22.40
2022-08-29T23:01:51.133Z,22.30
2022-08-29T23:04:18.046Z,22.10
2022-08-29T23:06:44.910Z,22.20
2022-08-29T23:09:12.939Z,22.20
2022-08-29T23:11:40.797Z,22.10
2022-08-29T23:14:09.184Z,22.00
2022-08-29T23:16:40.113Z,22.10
2022-08-29T23:19:06.986Z,22.10
2022-08-29T23:21:34.448Z,22.20
2022-08-29T23:24:07.682Z,22.10
2022-08-29T23:26:35.317Z,22.00
2022-08-29T23:29:02.192Z,22.00
2022-08-29T23:31:29.090Z,22.00
2022-08-29T23:33:56.271Z,21.90
2022-08-29T23:36:23.250Z,21.80
2022-08-29T23:38:52.712Z,21.90
2022-08-29T23:41:20.117Z,21.80
2022-08-29T23:43:46.899Z,21.80
2022-08-29T23:46:14.108Z,21.70
2022-08-29T23:48:41.542Z,21.80
2022-08-29T23:51:10.494Z,21.80
2022-08-29T23:53:38.121Z,22.10
2022-08-29T23:56:14.995Z,22.00
2022-08-29T23:58:41.894Z,21.80
